Time;durP1;ratioP1;P1;durP2;ratioP2;P2;SDS_P1;SDS_P2;PMS_P1;PMS_P2;Temp;Humidity;BMP_temperature;BMP_pressure;BME280_temperature;BME280_humidity;BME280_pressure;Samples;Min_cycle;Max_cycle;Signal;HPM_P1;HPM_P2
2023/08/09 00:00:20;;;;;;;3.33;1.92;;;;;;;;;;5052048;28;20028;-50
2023/08/09 00:02:46;;;;;;;4.55;1.88;;;17.00;99.90;;;;;;5052044;28;20041;-52
2023/08/09 00:05:12;;;;;;;2.33;1.60;;;17.70;99.90;;;;;;5052364;28;20028;-53
2023/08/09 00:07:37;;;;;;;3.00;1.88;;;14.80;99.90;;;;;;5051895;28;20032;-53
2023/08/09 00:10:04;;;;;;;5.70;2.00;;;17.40;99.90;;;;;;5051992;28;20056;-54
2023/08/09 00:12:30;;;;;;;2.90;1.77;;;18.20;99.90;;;;;;5052144;28;20417;-56
2023/08/09 00:14:56;;;;;;;5.28;2.00;;;18.20;99.90;;;;;;5051861;28;20033;-52
2023/08/09 00:17:21;;;;;;;4.45;1.77;;;17.50;99.90;;;;;;5051958;28;20032;-55
2023/08/09 00:19:47;;;;;;;3.40;1.73;;;15.40;99.90;;;;;;5051704;28;20036;-54
2023/08/09 00:22:13;;;;;;;2.00;1.38;;;14.20;99.90;;;;;;5052001;28;20108;-54
2023/08/09 00:24:38;;;;;;;3.10;1.70;;;14.30;99.90;;;;;;5051776;28;20389;-53
2023/08/09 00:27:04;;;;;;;3.25;1.85;;;14.10;99.90;;;;;;5051914;28;20104;-55
2023/08/09 00:29:29;;;;;;;3.15;1.77;;;14.00;99.90;;;;;;5051264;28;20465;-51
2023/08/09 00:31:56;;;;;;;4.43;1.73;;;13.90;99.90;;;;;;5051445;28;20060;-50
2023/08/09 00:34:21;;;;;;;4.80;2.15;;;17.30;99.90;;;;;;5051697;28;20025;-56
2023/08/09 00:36:47;;;;;;;4.57;1.80;;;14.40;99.90;;;;;;5051548;28;20036;-54
2023/08/09 00:39:13;;;;;;;3.38;1.65;;;15.90;99.90;;;;;;5051891;28;20031;-57
2023/08/09 00:41:39;;;;;;;2.75;1.70;;;17.40;99.90;;;;;;5051341;28;20116;-56
2023/08/09 00:44:05;;;;;;;5.40;2.10;;;16.30;99.90;;;;;;5038739;28;20022;-55
2023/08/09 00:46:30;;;;;;;4.10;1.98;;;17.10;99.90;;;;;;5035505;28;20041;-54
2023/08/09 00:48:56;;;;;;;4.40;2.10;;;17.20;99.90;;;;;;5032991;28;20477;-56
2023/08/09 00:51:23;;;;;;;4.38;1.95;;;;;;;;;;5036904;28;20382;-52
2023/08/09 00:53:49;;;;;;;3.00;1.88;;;18.40;99.90;;;;;;5043999;28;20021;-54
2023/08/09 00:56:15;;;;;;;3.28;1.98;;;16.60;99.90;;;;;;5051104;28;20098;-53
2023/08/09 00:58:40;;;;;;;2.85;1.67;;;13.60;99.90;;;;;;5051320;28;20059;-55
2023/08/09 01:01:06;;;;;;;3.13;1.55;;;17.10;99.90;;;;;;5050914;28;20410;-52
2023/08/09 01:03:32;;;;;;;2.72;1.58;;;17.80;99.90;;;;;;5051057;28;20506;-53
2023/08/09 01:06:28;;;;;;;3.00;1.65;;;16.80;99.90;;;;;;5051202;28;20029;-57
2023/08/09 01:09:09;;;;;;;3.78;2.00;;;13.40;99.90;;;;;;5051082;28;20032;-55
2023/08/09 01:11:46;;;;;;;2.83;1.63;;;14.60;99.90;;;;;;5050702;28;20541;-51
2023/08/09 01:14:14;;;;;;;2.97;1.60;;;13.90;99.90;;;;;;5051032;28;20032;-50
2023/08/09 01:16:40;;;;;;;3.42;1.90;;;15.70;99.90;;;;;;5050629;28;20829;-56
2023/08/09 01:19:11;;;;;;;3.85;1.63;;;15.80;99.90;;;;;;5050927;28;20493;-50
2023/08/09 01:21:39;;;;;;;2.38;1.38;;;13.50;99.90;;;;;;5050702;28;20187;-51
2023/08/09 01:24:08;;;;;;;3.55;1.60;;;16.40;99.90;;;;;;5050892;28;20020;-52
2023/08/09 01:26:34;;;;;;;2.42;1.60;;;;;;;;;;5050595;28;20150;-55
2023/08/09 01:28:59;;;;;;;3.80;2.08;;;16.40;99.90;;;;;;5050888;28;20032;-55
2023/08/09 01:31:25;;;;;;;2.95;1.83;;;17.60;99.90;;;;;;5050701;28;20025;-53
2023/08/09 01:33:51;;;;;;;2.60;1.70;;;17.10;99.90;;;;;;5050725;28;20092;-53
2023/08/09 01:36:23;;;;;;;5.00;1.70;;;15.70;99.90;;;;;;5050532;28;20037;-50
2023/08/09 01:38:59;;;;;;;4.43;1.17;;;15.90;99.90;;;;;;5050387;28;20396;-59
2023/08/09 01:41:24;;;;;;;3.35;1.65;;;15.50;99.90;;;;;;5049746;28;20385;-56
2023/08/09 01:43:51;;;;;;;5.75;1.83;;;13.30;99.90;;;;;;5050367;28;20017;-54
2023/08/09 01:46:16;;;;;;;3.20;1.80;;;16.40;99.90;;;;;;5050108;28;20057;-54
2023/08/09 01:48:42;;;;;;;4.03;1.52;;;13.00;99.90;;;;;;5050233;28;20028;-54
2023/08/09 01:51:08;;;;;;;3.20;1.73;;;;;;;;;;5050189;28;20033;-53
2023/08/09 01:53:34;;;;;;;3.15;1.70;;;17.70;99.90;;;;;;5050357;28;20029;-53
2023/08/09 01:56:00;;;;;;;2.15;1.55;;;16.40;99.90;;;;;;5050305;28;20404;-50
2023/08/09 01:58:25;;;;;;;3.83;1.65;;;13.10;99.90;;;;;;5050357;28;20071;-55
2023/08/09 02:00:52;;;;;;;2.50;1.23;;;;;;;;;;5050177;28;20029;-56
2023/08/09 02:03:17;;;;;;;3.83;1.73;;;16.60;99.90;;;;;;5050403;28;20025;-54
2023/08/09 02:05:44;;;;;;;4.55;2.40;;;;;;;;;;5050324;28;20017;-56
2023/08/09 02:08:09;;;;;;;4.18;2.30;;;16.90;99.90;;;;;;5050386;28;20068;-50
2023/08/09 02:10:35;;;;;;;3.10;1.70;;;13.80;99.90;;;;;;5050292;28;20052;-49
2023/08/09 02:13:00;;;;;;;2.53;1.63;;;13.10;99.90;;;;;;5050126;28;20040;-50
2023/08/09 02:15:26;;;;;;;4.65;1.80;;;15.80;99.90;;;;;;5050101;28;20033;-49
2023/08/09 02:17:52;;;;;;;2.78;1.80;;;13.50;99.90;;;;;;5050142;28;20025;-52
2023/08/09 02:20:21;;;;;;;2.83;1.60;;;15.00;99.90;;;;;;5049821;28;20029;-51
2023/08/09 02:22:46;;;;;;;3.87;1.93;;;17.30;99.90;;;;;;5050222;28;20033;-50
2023/08/09 02:25:13;;;;;;;3.22;1.95;;;16.00;99.90;;;;;;5042782;28;20112;-53
2023/08/09 02:27:39;;;;;;;3.95;2.00;;;15.80;99.90;;;;;;5049666;28;20550;-49
2023/08/09 02:30:06;;;;;;;3.50;1.42;;;12.70;99.90;;;;;;5049693;28;20033;-52
2023/08/09 02:32:42;;;;;;;3.35;1.70;;;14.90;99.90;;;;;;5049972;28;20021;-49
2023/08/09 02:35:08;;;;;;;3.78;1.55;;;15.80;99.90;;;;;;5050350;28;20040;-52
2023/08/09 02:37:34;;;;;;;5.80;2.58;;;15.70;99.90;;;;;;5050026;28;20029;-52
2023/08/09 02:39:59;;;;;;;3.70;1.95;;;15.30;99.90;;;;;;5049993;28;20063;-50
2023/08/09 02:42:25;;;;;;;3.83;1.95;;;13.00;99.90;;;;;;5050001;28;20096;-53
2023/08/09 02:44:51;;;;;;;4.68;1.85;;;13.30;99.90;;;;;;5049907;28;20063;-48
2023/08/09 02:47:17;;;;;;;4.53;2.40;;;16.10;99.90;;;;;;5049888;28;20017;-52
2023/08/09 02:49:43;;;;;;;2.65;1.50;;;12.70;99.90;;;;;;5049963;28;20025;-57
2023/08/09 02:52:09;;;;;;;2.58;1.50;;;15.90;99.90;;;;;;5050448;28;20393;-52
2023/08/09 02:54:36;;;;;;;2.55;1.38;;;15.20;99.90;;;;;;5053699;28;20025;-58
2023/08/09 02:57:01;;;;;;;3.15;1.48;;;16.00;99.90;;;;;;5053422;28;20025;-54
2023/08/09 02:59:27;;;;;;;2.92;1.70;;;15.00;99.90;;;;;;5053580;28;20024;-57
2023/08/09 03:01:53;;;;;;;3.05;1.35;;;14.10;99.90;;;;;;5053151;28;20028;-51
2023/08/09 03:04:18;;;;;;;3.85;1.77;;;16.00;99.90;;;;;;5053628;28;20108;-52
2023/08/09 03:06:44;;;;;;;3.83;2.00;;;15.40;99.90;;;;;;5053319;28;20104;-52
2023/08/09 03:09:10;;;;;;;3.58;1.85;;;13.20;99.90;;;;;;5053200;28;20385;-52
2023/08/09 03:11:36;;;;;;;3.25;1.70;;;15.50;99.90;;;;;;5053196;28;20362;-49
2023/08/09 03:14:02;;;;;;;3.45;1.65;;;12.20;99.90;;;;;;5052960;28;20104;-52
2023/08/09 03:16:28;;;;;;;3.25;1.83;;;;;;;;;;5053084;28;20116;-52
2023/08/09 03:18:53;;;;;;;2.15;1.45;;;12.90;99.90;;;;;;5053275;28;20025;-53
2023/08/09 03:21:19;;;;;;;4.50;1.92;;;14.30;99.90;;;;;;5053168;28;20078;-55
2023/08/09 03:23:44;;;;;;;3.13;1.58;;;11.80;99.90;;;;;;5053122;28;20025;-50
2023/08/09 03:26:10;;;;;;;2.72;1.90;;;13.20;99.90;;;;;;5053141;28;20494;-55
2023/08/09 03:28:36;;;;;;;3.58;1.45;;;14.50;99.90;;;;;;5052869;28;20037;-54
2023/08/09 03:31:03;;;;;;;2.97;1.70;;;11.60;99.90;;;;;;5052589;28;20023;-53
2023/08/09 03:33:29;;;;;;;2.47;1.50;;;15.00;99.90;;;;;;5052594;28;20036;-48
2023/08/09 03:35:55;;;;;;;3.45;1.80;;;;;;;;;;5052490;28;20037;-52
2023/08/09 03:38:20;;;;;;;6.18;2.00;;;13.80;99.90;;;;;;5052695;28;20025;-52
2023/08/09 03:40:46;;;;;;;3.58;1.73;;;16.30;99.90;;;;;;5052636;28;20491;-50
2023/08/09 03:43:11;;;;;;;4.60;1.80;;;15.30;99.90;;;;;;5052589;28;20021;-53
2023/08/09 03:45:37;;;;;;;3.10;1.88;;;12.30;99.90;;;;;;5052306;28;20497;-56
2023/08/09 03:48:04;;;;;;;2.50;1.40;;;13.70;99.90;;;;;;5052332;28;20017;-50
2023/08/09 03:50:29;;;;;;;3.65;1.58;;;13.30;99.90;;;;;;5052689;28;20025;-54
2023/08/09 03:52:55;;;;;;;3.75;2.13;;;;;;;;;;5052306;28;20017;-55
2023/08/09 03:55:21;;;;;;;2.83;1.75;;;;;;;;;;5052416;28;20453;-52
2023/08/09 03:57:47;;;;;;;3.13;1.42;;;;;;;;;;5052396;28;20025;-50
2023/08/09 04:00:17;;;;;;;4.65;1.60;;;;;;;;;;5052115;28;20032;-48
2023/08/09 04:02:47;;;;;;;2.20;1.38;;;11.70;99.90;;;;;;5052478;28;20021;-53
2023/08/09 04:05:14;;;;;;;2.40;1.38;;;14.80;99.90;;;;;;5051290;28;20097;-56
2023/08/09 04:07:42;;;;;;;2.80;1.50;;;15.00;99.90;;;;;;5052209;28;20504;-50
2023/08/09 04:10:08;;;;;;;4.95;1.67;;;14.10;99.90;;;;;;5052002;28;20049;-54
2023/08/09 04:12:34;;;;;;;2.97;1.60;;;11.70;99.90;;;;;;5052005;28;20497;-52
2023/08/09 04:15:00;;;;;;;3.22;1.98;;;11.00;99.90;;;;;;5051896;28;20051;-54
2023/08/09 04:17:26;;;;;;;2.90;1.50;;;12.50;99.90;;;;;;5051941;28;20020;-52
2023/08/09 04:19:52;;;;;;;3.28;1.90;;;11.40;99.90;;;;;;5051995;28;20029;-51
2023/08/09 04:22:18;;;;;;;3.67;1.75;;;13.50;99.90;;;;;;5051780;28;20052;-55
2023/08/09 04:24:44;;;;;;;4.90;1.80;;;15.10;99.90;;;;;;5052068;28;20469;-55
2023/08/09 04:27:10;;;;;;;3.83;2.28;;;15.10;99.90;;;;;;5051636;28;20013;-50
2023/08/09 04:29:35;;;;;;;3.28;1.98;;;14.90;99.90;;;;;;5051799;28;20577;-51
2023/08/09 04:32:01;;;;;;;4.25;2.60;;;11.50;99.90;;;;;;5051501;28;20040;-53
2023/08/09 04:34:27;;;;;;;4.80;2.45;;;11.80;99.90;;;;;;5051451;28;20063;-53
2023/08/09 04:36:52;;;;;;;3.15;2.00;;;14.60;99.90;;;;;;5051633;28;20033;-50
2023/08/09 04:39:18;;;;;;;4.32;2.15;;;14.20;99.90;;;;;;5051450;28;20025;-53
2023/08/09 04:41:44;;;;;;;4.38;2.30;;;14.60;99.90;;;;;;5043733;28;20017;-49
2023/08/09 04:44:10;;;;;;;4.10;2.00;;;;;;;;;;5035098;28;20036;-52
2023/08/09 04:46:36;;;;;;;17.42;2.30;;;14.90;99.90;;;;;;5031789;28;20108;-49
2023/08/09 04:49:03;;;;;;;4.40;2.60;;;;;;;;;;5035824;28;20022;-56
2023/08/09 04:51:29;;;;;;;8.57;2.58;;;13.90;99.90;;;;;;5035609;28;20555;-56
2023/08/09 04:53:55;;;;;;;4.05;2.03;;;11.70;99.90;;;;;;5031197;28;20106;-51
2023/08/09 04:56:21;;;;;;;9.75;2.25;;;13.50;99.90;;;;;;5035092;28;20038;-50
2023/08/09 04:58:47;;;;;;;10.90;2.10;;;;;;;;;;5035305;28;20093;-49
2023/08/09 05:01:12;;;;;;;10.45;2.05;;;14.40;99.90;;;;;;5035390;28;20104;-57
2023/08/09 05:03:38;;;;;;;3.15;1.50;;;15.10;99.90;;;;;;5031131;28;20421;-54
2023/08/09 05:06:04;;;;;;;12.55;1.85;;;12.80;99.90;;;;;;5035321;28;20037;-53
2023/08/09 05:08:29;;;;;;;5.05;1.52;;;13.70;99.90;;;;;;5035401;28;20025;-52
2023/08/09 05:10:55;;;;;;;9.45;2.13;;;;;;;;;;5031075;28;20030;-51
2023/08/09 05:13:21;;;;;;;5.28;1.90;;;11.80;99.90;;;;;;5035196;28;20578;-54
2023/08/09 05:15:46;;;;;;;7.50;1.73;;;14.60;99.90;;;;;;5034879;28;20120;-48
2023/08/09 05:18:12;;;;;;;4.57;2.05;;;13.60;99.90;;;;;;5034999;28;20025;-52
2023/08/09 05:20:38;;;;;;;3.13;1.70;;;14.70;99.90;;;;;;5031118;28;20040;-53
2023/08/09 05:23:04;;;;;;;4.25;2.05;;;;;;;;;;5035070;28;20061;-56
2023/08/09 05:25:29;;;;;;;5.65;1.60;;;11.90;99.90;;;;;;5034880;28;20493;-55
2023/08/09 05:27:56;;;;;;;4.05;2.08;;;;;;;;;;5030769;28;20021;-52
2023/08/09 05:30:22;;;;;;;7.05;1.52;;;;;;;;;;5034745;28;20037;-52
2023/08/09 05:32:48;;;;;;;4.97;1.77;;;16.30;99.90;;;;;;5034991;28;20147;-51
2023/08/09 05:35:14;;;;;;;2.53;1.48;;;15.10;99.90;;;;;;5040820;28;20111;-52
2023/08/09 05:37:40;;;;;;;2.25;1.27;;;16.10;99.90;;;;;;5050675;28;20479;-55
2023/08/09 05:40:12;;;;;;;11.57;2.03;;;14.40;99.90;;;;;;5050598;28;20032;-50
2023/08/09 05:42:39;;;;;;;2.78;1.65;;;15.60;99.90;;;;;;5050738;28;20078;-54
2023/08/09 05:45:05;;;;;;;4.50;2.25;;;13.90;99.90;;;;;;5050506;28;20052;-55
2023/08/09 05:47:31;;;;;;;5.38;1.80;;;16.30;99.90;;;;;;5050781;28;20017;-50
2023/08/09 05:49:57;;;;;;;3.63;1.45;;;12.20;99.90;;;;;;5050716;28;20021;-52
2023/08/09 05:52:22;;;;;;;4.32;2.00;;;15.60;99.90;;;;;;5050559;28;20474;-51
2023/08/09 05:54:48;;;;;;;3.78;2.28;;;12.00;99.90;;;;;;5050256;28;20029;-53
2023/08/09 05:57:14;;;;;;;4.70;2.28;;;15.50;99.90;;;;;;5050748;28;20308;-48
2023/08/09 05:59:40;;;;;;;3.80;1.90;;;12.70;99.90;;;;;;5050432;28;20549;-52
2023/08/09 06:02:06;;;;;;;4.40;2.38;;;17.00;99.90;;;;;;5050487;28;20048;-53
2023/08/09 06:04:33;;;;;;;7.53;2.83;;;12.80;99.90;;;;;;5050475;28;20440;-54
2023/08/09 06:06:59;;;;;;;5.05;2.55;;;;;;;;;;5050460;28;20074;-56
2023/08/09 06:09:25;;;;;;;8.18;2.83;;;16.30;99.90;;;;;;5050336;28;20025;-50
2023/08/09 06:11:51;;;;;;;6.82;2.95;;;;;;;;;;5050339;28;20112;-50
2023/08/09 06:14:16;;;;;;;5.25;2.97;;;16.50;99.90;;;;;;5050450;28;20033;-54
2023/08/09 06:16:45;;;;;;;5.40;3.00;;;12.60;99.90;;;;;;5050360;28;20037;-56
2023/08/09 06:19:11;;;;;;;7.57;3.45;;;;;;;;;;5050367;28;20493;-51
2023/08/09 06:21:38;;;;;;;5.95;3.30;;;13.40;99.90;;;;;;5050488;28;20036;-53
2023/08/09 06:24:05;;;;;;;7.82;3.45;;;16.50;99.90;;;;;;5050066;28;20056;-50
2023/08/09 06:26:32;;;;;;;8.00;2.80;;;17.80;99.90;;;;;;5050275;28;20036;-49
2023/08/09 06:28:57;;;;;;;9.00;3.83;;;16.30;99.90;;;;;;5053706;28;20036;-56
2023/08/09 06:31:23;;;;;;;5.90;2.97;;;17.10;99.90;;;;;;5054348;28;20020;-54
2023/08/09 06:33:49;;;;;;;7.22;3.88;;;14.60;99.90;;;;;;5054034;28;20044;-53
2023/08/09 06:36:14;;;;;;;5.60;3.13;;;16.90;99.90;;;;;;5053844;28;20029;-49
2023/08/09 06:38:40;;;;;;;7.60;3.53;;;16.60;99.90;;;;;;5054095;28;20060;-54
2023/08/09 06:41:06;;;;;;;7.10;3.63;;;17.10;99.90;;;;;;5053915;28;20028;-50
2023/08/09 06:43:31;;;;;;;7.90;4.05;;;15.00;99.90;;;;;;5052650;28;20062;-55
2023/08/09 06:45:58;;;;;;;7.55;4.13;;;17.70;99.90;;;;;;5053615;28;20484;-55
2023/08/09 06:48:24;;;;;;;6.68;3.47;;;18.30;99.90;;;;;;5053967;28;20040;-55
2023/08/09 06:50:50;;;;;;;6.93;3.92;;;16.40;99.90;;;;;;5053847;28;20025;-56
2023/08/09 06:53:16;;;;;;;8.15;4.10;;;18.70;99.90;;;;;;5053668;28;20107;-56
2023/08/09 06:55:42;;;;;;;6.22;3.05;;;;;;;;;;5053592;28;20083;-53
2023/08/09 06:58:08;;;;;;;7.68;4.15;;;18.80;99.90;;;;;;5053672;28;20044;-57
2023/08/09 07:00:33;;;;;;;6.57;3.65;;;17.80;99.90;;;;;;5053797;28;20029;-55
2023/08/09 07:02:59;;;;;;;8.13;4.07;;;18.30;99.90;;;;;;5053396;28;20017;-51
2023/08/09 07:05:25;;;;;;;8.95;4.03;;;17.50;99.90;;;;;;5053503;28;20079;-53
2023/08/09 07:07:54;;;;;;;6.47;3.90;;;19.50;99.90;;;;;;5053400;28;20079;-52
2023/08/09 07:10:21;;;;;;;5.75;3.13;;;18.00;99.90;;;;;;5053294;28;20029;-49
2023/08/09 07:12:46;;;;;;;6.95;3.58;;;15.10;99.90;;;;;;5053249;28;20048;-55
2023/08/09 07:15:12;;;;;;;6.75;4.03;;;14.40;99.90;;;;;;5053014;28;20481;-50
2023/08/09 07:17:38;;;;;;;6.93;3.88;;;18.40;99.90;;;;;;5053207;28;20064;-53
2023/08/09 07:20:11;;;;;;;7.13;3.30;;;18.30;99.90;;;;;;5053082;28;20047;-53
2023/08/09 07:22:37;;;;;;;5.78;3.40;;;;;;;;;;5053417;28;20099;-55
2023/08/09 07:25:03;;;;;;;7.35;3.92;;;14.00;99.90;;;;;;5053085;28;20536;-52
2023/08/09 07:27:30;;;;;;;6.70;3.67;;;;;;;;;;5053323;28;20025;-50
2023/08/09 07:29:55;;;;;;;8.20;3.78;;;17.90;99.90;;;;;;5053314;28;20079;-49
2023/08/09 07:32:21;;;;;;;7.40;3.65;;;17.70;99.90;;;;;;5052966;28;20060;-51
2023/08/09 07:34:47;;;;;;;6.35;3.33;;;17.20;99.90;;;;;;5046687;28;20548;-50
2023/08/09 07:37:12;;;;;;;6.45;3.45;;;16.90;99.90;;;;;;5045456;28;20442;-50
2023/08/09 07:39:38;;;;;;;6.00;3.70;;;19.60;99.90;;;;;;5051728;28;20515;-53
2023/08/09 07:42:03;;;;;;;6.35;3.38;;;15.40;99.90;;;;;;5053137;28;20017;-59
2023/08/09 07:44:29;;;;;;;6.03;3.45;;;17.90;99.90;;;;;;5052528;28;20059;-53
2023/08/09 07:46:55;;;;;;;6.97;3.47;;;18.60;99.90;;;;;;5052941;28;20175;-58
2023/08/09 07:49:21;;;;;;;6.50;3.67;;;;;;;;;;5052565;28;20489;-52
2023/08/09 07:51:46;;;;;;;6.85;3.50;;;19.00;99.90;;;;;;5040309;28;20057;-51
2023/08/09 07:54:12;;;;;;;7.45;3.40;;;19.90;99.90;;;;;;5037338;28;20044;-50
2023/08/09 07:56:38;;;;;;;6.60;3.33;;;18.60;99.90;;;;;;5037170;28;20025;-52
2023/08/09 07:59:04;;;;;;;6.43;3.67;;;18.30;99.90;;;;;;5037285;28;20485;-51
2023/08/09 08:01:31;;;;;;;6.13;3.40;;;17.30;99.90;;;;;;5046220;28;20028;-57
2023/08/09 08:03:57;;;;;;;6.53;3.42;;;;;;;;;;5043584;28;20021;-53
2023/08/09 08:06:23;;;;;;;3.90;2.17;;;18.80;99.90;;;;;;5044362;28;20087;-50
2023/08/09 08:08:49;;;;;;;4.65;2.20;;;17.80;99.90;;;;;;5044948;28;20769;-53
2023/08/09 08:11:15;;;;;;;3.70;2.20;;;19.30;99.90;;;;;;5043354;28;20486;-50
2023/08/09 08:13:40;;;;;;;4.82;2.28;;;15.90;99.90;;;;;;5036680;28;20039;-52
2023/08/09 08:16:06;;;;;;;6.65;2.10;;;15.80;99.90;;;;;;5041714;28;20117;-52
2023/08/09 08:18:32;;;;;;;3.58;2.10;;;;;;;;;;5044612;28;20357;-51
2023/08/09 08:20:59;;;;;;;4.90;2.10;;;18.70;99.90;;;;;;5039444;28;20052;-51
2023/08/09 08:23:25;;;;;;;7.00;2.45;;;19.50;99.90;;;;;;5037528;28;20021;-56
2023/08/09 08:25:51;;;;;;;4.00;2.42;;;18.60;99.90;;;;;;5044436;28;20052;-54
2023/08/09 08:28:17;;;;;;;3.08;1.88;;;18.90;99.90;;;;;;5043384;28;20017;-57
2023/08/09 08:30:42;;;;;;;3.03;1.88;;;19.00;99.90;;;;;;5036319;28;20440;-55
2023/08/09 08:33:08;;;;;;;2.92;1.58;;;20.90;99.90;;;;;;5041004;28;20091;-56
2023/08/09 08:35:36;;;;;;;3.67;1.85;;;20.50;99.90;;;;;;5044394;28;20405;-49
2023/08/09 08:38:02;;;;;;;4.47;1.95;;;19.10;99.90;;;;;;5032924;28;20026;-55
2023/08/09 08:40:31;;;;;;;3.85;1.60;;;22.20;99.90;;;;;;5035396;28;20521;-55
2023/08/09 08:42:58;;;;;;;2.92;1.30;;;22.00;99.90;;;;;;5035583;28;20804;-55
2023/08/09 08:45:24;;;;;;;4.00;1.35;;;22.00;99.90;;;;;;5031635;28;20187;-54
2023/08/09 08:47:50;;;;;;;1.85;1.08;;;25.40;99.90;;;;;;5035206;28;20122;-53
2023/08/09 08:50:17;;;;;;;2.22;1.27;;;23.20;99.90;;;;;;5035121;28;20037;-50
2023/08/09 08:52:45;;;;;;;1.02;0.70;;;23.90;99.90;;;;;;5035284;28;20025;-49
2023/08/09 08:55:12;;;;;;;2.63;1.15;;;24.20;99.90;;;;;;5040299;28;20037;-51
2023/08/09 08:57:39;;;;;;;1.92;1.17;;;22.70;99.90;;;;;;5035702;28;20030;-49
2023/08/09 09:00:15;;;;;;;4.13;0.75;;;24.30;99.90;;;;;;5038606;28;20025;-51
2023/08/09 09:02:44;;;;;;;1.15;0.80;;;25.70;99.90;;;;;;5031964;28;20394;-51
2023/08/09 09:05:14;;;;;;;1.80;1.10;;;25.80;99.90;;;;;;5032037;28;20083;-56
2023/08/09 09:07:42;;;;;;;1.80;1.00;;;25.80;99.90;;;;;;5034185;28;20117;-49
2023/08/09 09:10:12;;;;;;;1.60;0.77;;;25.90;99.90;;;;;;5031210;28;20029;-52
2023/08/09 09:12:39;;;;;;;1.40;0.65;;;27.60;99.90;;;;;;5034094;28;20033;-52
2023/08/09 09:15:06;;;;;;;3.33;0.93;;;26.10;99.90;;;;;;5033588;28;20029;-52
2023/08/09 09:17:39;;;;;;;1.08;0.80;;;27.60;99.90;;;;;;5031196;28;20022;-50
2023/08/09 09:20:10;;;;;;;1.63;0.80;;;26.50;99.90;;;;;;5031786;28;20119;-51
2023/08/09 09:22:36;;;;;;;1.15;0.80;;;25.70;99.90;;;;;;5031921;28;20032;-52
2023/08/09 09:25:09;;;;;;;1.75;0.85;;;25.40;99.90;;;;;;5031672;28;20025;-57
2023/08/09 09:27:35;;;;;;;1.30;0.80;;;27.60;99.90;;;;;;5029120;28;20470;-51
2023/08/09 09:30:11;;;;;;;1.67;0.63;;;25.90;99.90;;;;;;5031793;28;20086;-52
2023/08/09 09:32:40;;;;;;;1.55;0.90;;;26.70;99.90;;;;;;5031765;28;20048;-49
2023/08/09 09:35:06;;;;;;;;;;;25.90;99.90;;;;;;5040151;28;20116;-50
2023/08/09 09:37:32;;;;;;;2.80;1.10;;;25.40;99.90;;;;;;5051004;28;19990;-51
2023/08/09 09:39:58;;;;;;;1.90;0.82;;;25.30;99.90;;;;;;5050526;28;20036;-55
2023/08/09 09:42:34;;;;;;;1.52;0.77;;;25.20;99.90;;;;;;5050781;28;20028;-51
2023/08/09 09:45:07;;;;;;;1.40;0.80;;;25.40;99.90;;;;;;5036939;28;20101;-49
2023/08/09 09:47:40;;;;;;;1.00;0.80;;;25.80;99.90;;;;;;5050510;28;20147;-50
2023/08/09 09:50:07;;;;;;;2.08;1.30;;;26.50;99.90;;;;;;5036928;28;20021;-55
2023/08/09 09:52:38;;;;;;;1.33;0.90;;;26.50;99.90;;;;;;5050506;28;20029;-49
2023/08/09 09:55:05;;;;;;;1.13;0.70;;;26.80;99.90;;;;;;5050283;28;20040;-54
2023/08/09 09:57:34;;;;;;;3.20;1.00;;;26.70;99.90;;;;;;5050116;28;20489;-56
2023/08/09 10:00:06;;;;;;;1.90;0.98;;;26.00;99.90;;;;;;5046076;28;20060;-50
2023/08/09 10:02:39;;;;;;;0.95;0.80;;;26.70;99.90;;;;;;5031374;28;20057;-52
2023/08/09 10:05:10;;;;;;;2.22;1.00;;;26.00;99.90;;;;;;5032089;28;20026;-50
2023/08/09 10:07:36;;;;;;;1.92;0.93;;;26.40;99.90;;;;;;5030572;28;20052;-53
2023/08/09 10:10:02;;;;;;;1.38;0.82;;;26.70;99.90;;;;;;5031872;28;20394;-54
2023/08/09 10:12:30;;;;;;;3.25;0.90;;;27.00;99.90;;;;;;5032086;28;20026;-45
2023/08/09 10:14:58;;;;;;;1.38;0.80;;;27.40;99.90;;;;;;5031711;28;20069;-49
2023/08/09 10:17:27;;;;;;;1.52;0.90;;;28.70;98.60;;;;;;5030060;28;20175;-50
2023/08/09 10:19:53;;;;;;;2.40;1.00;;;27.00;99.00;;;;;;5041953;28;20508;-49
2023/08/09 10:22:20;;;;;;;2.65;0.98;;;26.20;99.20;;;;;;5043531;28;20029;-57
2023/08/09 10:24:50;;;;;;;2.08;0.90;;;25.40;99.90;;;;;;5047917;28;20025;-53
2023/08/09 10:28:00;;;;;;;1.85;0.90;;;24.60;99.90;;;;;;5040045;28;20104;-53
2023/08/09 10:30:30;;;;;;;0.60;0.60;;;23.80;99.90;;;;;;5030343;28;20029;-49
2023/08/09 10:32:57;;;;;;;1.10;0.70;;;23.80;99.90;;;;;;5038587;28;20474;-48
2023/08/09 10:35:50;;;;;;;0.95;0.70;;;23.20;99.90;;;;;;5041356;28;20102;-53
2023/08/09 10:38:20;;;;;;;0.95;0.70;;;23.70;99.90;;;;;;5049017;28;20575;-48
2023/08/09 10:40:53;;;;;;;1.48;0.75;;;20.70;99.90;;;;;;5050070;28;20436;-54
2023/08/09 10:43:21;;;;;;;1.60;0.80;;;22.90;99.90;;;;;;5036718;28;20142;-48
2023/08/09 10:45:48;;;;;;;1.50;0.75;;;22.10;99.90;;;;;;5049910;28;20071;-52
2023/08/09 10:48:19;;;;;;;3.00;0.80;;;23.60;99.90;;;;;;5036013;28;20026;-53
2023/08/09 10:50:45;;;;;;;1.38;0.80;;;23.20;99.90;;;;;;5047606;28;20052;-50
2023/08/09 10:53:11;;;;;;;2.90;0.80;;;25.50;99.90;;;;;;5039487;28;20064;-49
2023/08/09 10:55:36;;;;;;;3.10;0.77;;;24.00;99.90;;;;;;5038024;28;20033;-50
2023/08/09 10:58:03;;;;;;;1.38;0.85;;;25.30;99.90;;;;;;5037978;28;20017;-51
2023/08/09 11:00:41;;;;;;;1.05;0.63;;;25.10;99.90;;;;;;5031835;28;20394;-56
2023/08/09 11:03:08;;;;;;;1.98;0.85;;;24.70;99.90;;;;;;5033938;28;20027;-51
2023/08/09 11:05:33;;;;;;;0.93;0.63;;;24.60;99.90;;;;;;5038192;28;20033;-53
2023/08/09 11:08:09;;;;;;;1.38;0.73;;;24.60;99.90;;;;;;5037587;28;20079;-52
2023/08/09 11:10:37;;;;;;;1.20;0.80;;;24.90;99.90;;;;;;5048917;28;20512;-48
2023/08/09 11:13:08;;;;;;;0.95;0.77;;;23.70;99.90;;;;;;5036550;28;20116;-49
2023/08/09 11:15:35;;;;;;;1.58;0.90;;;25.30;99.90;;;;;;5046283;28;20029;-50
2023/08/09 11:18:01;;;;;;;1.60;0.80;;;25.30;99.90;;;;;;5044742;28;20082;-56
2023/08/09 11:20:27;;;;;;;1.08;0.80;;;24.30;99.90;;;;;;5038147;28;20025;-52
2023/08/09 11:22:56;;;;;;;1.70;0.80;;;21.70;99.90;;;;;;5042892;28;20079;-52
2023/08/09 11:25:23;;;;;;;1.05;0.80;;;23.90;99.90;;;;;;5046464;28;20060;-53
2023/08/09 11:27:56;;;;;;;1.58;0.82;;;25.30;99.90;;;;;;5041364;28;20451;-50
2023/08/09 11:30:22;;;;;;;1.58;0.93;;;21.50;99.90;;;;;;5038142;28;20033;-51
2023/08/09 11:33:02;;;;;;;1.42;0.90;;;24.10;99.90;;;;;;5045089;28;20168;-49
2023/08/09 11:35:39;;;;;;;1.30;0.90;;;22.70;99.90;;;;;;5033274;28;20121;-50
2023/08/09 11:38:09;;;;;;;1.60;0.73;;;23.80;99.90;;;;;;5038509;28;20294;-54
2023/08/09 11:40:47;;;;;;;1.90;0.90;;;21.30;99.90;;;;;;5049912;28;20025;-53
2023/08/09 11:43:14;;;;;;;2.00;0.80;;;25.10;99.90;;;;;;5042969;28;20025;-55
2023/08/09 11:45:49;;;;;;;3.70;1.00;;;25.70;99.90;;;;;;5040783;28;20049;-49
2023/08/09 11:48:32;;;;;;;1.30;0.85;;;25.60;99.90;;;;;;5034417;28;20036;-49
2023/08/09 11:51:11;;;;;;;2.38;1.02;;;25.70;99.90;;;;;;5039057;28;20064;-51
2023/08/09 11:53:38;;;;;;;2.63;0.90;;;26.30;99.80;;;;;;5042583;28;20018;-53
2023/08/09 11:56:06;;;;;;;2.10;0.80;;;26.30;99.90;;;;;;5043811;28;20119;-49
2023/08/09 11:58:36;;;;;;;0.80;0.73;;;26.30;99.90;;;;;;5036080;28;20508;-51
2023/08/09 12:01:34;;;;;;;2.97;0.70;;;26.70;99.90;;;;;;5040112;28;20033;-55
2023/08/09 12:04:04;;;;;;;1.13;0.77;;;26.60;99.90;;;;;;5034301;28;20456;-51
2023/08/09 12:06:42;;;;;;;0.98;0.70;;;26.60;99.90;;;;;;5043120;28;20032;-47
2023/08/09 12:09:30;;;;;;;1.85;0.80;;;26.50;99.90;;;;;;5040026;28;20028;-47
2023/08/09 12:12:05;;;;;;;1.10;0.80;;;26.50;98.70;;;;;;5039955;28;20096;-47
2023/08/09 12:14:32;;;;;;;1.92;0.80;;;26.80;99.90;;;;;;5038736;28;20025;-51
2023/08/09 12:16:58;;;;;;;2.30;0.95;;;26.00;99.90;;;;;;5045170;28;20032;-50
2023/08/09 12:19:24;;;;;;;3.20;1.13;;;25.60;99.90;;;;;;5049773;28;20040;-49
2023/08/09 12:21:49;;;;;;;1.55;0.90;;;25.50;99.90;;;;;;5049797;28;20074;-47
2023/08/09 12:24:15;;;;;;;1.42;0.98;;;24.00;99.90;;;;;;5044186;28;20022;-53
2023/08/09 12:26:41;;;;;;;1.52;0.82;;;24.60;99.90;;;;;;5031518;28;20775;-51
2023/08/09 12:29:11;;;;;;;1.75;0.85;;;24.80;99.90;;;;;;5032039;28;20025;-54
2023/08/09 12:31:37;;;;;;;2.58;1.00;;;24.70;99.90;;;;;;5032295;28;20050;-50
2023/08/09 12:34:04;;;;;;;2.10;1.00;;;22.20;99.90;;;;;;5046164;28;20036;-47
2023/08/09 12:36:30;;;;;;;2.72;0.93;;;24.10;99.90;;;;;;5051958;28;20033;-52
2023/08/09 12:38:57;;;;;;;2.58;1.13;;;22.40;99.90;;;;;;5051811;28;20025;-48
2023/08/09 12:41:22;;;;;;;1.60;0.90;;;25.70;99.90;;;;;;5051727;28;20040;-47
2023/08/09 12:43:48;;;;;;;1.55;0.80;;;22.10;99.90;;;;;;5051717;28;20373;-52
2023/08/09 12:46:14;;;;;;;2.15;0.80;;;24.30;99.90;;;;;;5049369;28;20052;-56
2023/08/09 12:48:39;;;;;;;1.73;0.70;;;25.10;99.90;;;;;;5050900;28;20029;-52
2023/08/09 12:51:05;;;;;;;1.48;0.93;;;24.60;99.90;;;;;;5036766;28;20076;-51
2023/08/09 12:53:31;;;;;;;1.42;0.77;;;25.20;99.90;;;;;;5034385;28;20086;-54
2023/08/09 12:55:57;;;;;;;1.52;0.90;;;26.00;99.90;;;;;;5048044;28;20068;-52